Rechercher aéroport 
image banner adimage banner adimage banner ad
image banner ad

KAJO - Corona Muni

Situé à Corona, United States

ICAO - AJO, IATA -

Données fournies par Airmate  

Information générale

Coordonnées: N33°53'52" W117°36'9"
Élévation : 533 feet MSL.
Variation magnétique : 14° East
Voir autres Aéroports à California

Données opérationnelles

Special qualification required
Heure actuelle UTC:
Heure actuelle locale:
Météo
METAR: KAJO 291456Z AUTO 25003KT 10SM CLR 22/14 A2996 RMK AO2 SLP136 T02170139 51008
Voir NOTAMs / SUP AIP / TFR affectant cet aéroport [VIEW]
Fréquences de communication: [VIEW]

Pistes:

Identifiant RWYQFULongueur (ft)Largeur (ft)SurfaceLDA (ft)
0789°320060ASPH
25269°320060ASPH

Coordonnées de l'aéroport

Adresse: Corona United States

Autres services d'aviation

Écoles de pilotage

Flying Academy

Flying Academy

Vue satellite de KAJO